Time;durP1;ratioP1;P1;durP2;ratioP2;P2;SDS_P1;SDS_P2;PMS_P1;PMS_P2;Temp;Humidity;BMP_temperature;BMP_pressure;BME280_temperature;BME280_humidity;BME280_pressure;Samples;Min_cycle;Max_cycle;Signal;HPM_P1;HPM_P2
2022/11/14 00:01:26;;;;;;;;;;;;;;;;;;5073635;28;19943;-57
2022/11/14 00:03:53;;;;;;;;;;;;;;;;;;5082459;28;19932;-58
2022/11/14 00:06:20;;;;;;;;;;;;;;;;;;5073776;28;20336;-57
2022/11/14 00:08:48;;;;;;;;;;;;;;;;;;5073769;28;19925;-57
2022/11/14 00:11:14;;;;;;;;;;;;;;;;;;5073697;28;19932;-53
2022/11/14 00:13:41;;;;;;;;;;;;;;;;;;5073581;28;19924;-57
2022/11/14 00:16:07;;;;;;;;;;;;;;;;;;5073592;28;19932;-54
2022/11/14 00:18:34;;;;;;;;;;;;;;;;;;5073346;28;19978;-55
2022/11/14 00:21:01;;;;;;;;;;;;;;;;;;5073882;28;19925;-57
2022/11/14 00:23:28;;;;;;;;;;;;;;;;;;5078469;28;19924;-56
2022/11/14 00:25:56;;;;;;;;;;;;;;;;;;5093518;28;19939;-56
2022/11/14 00:28:23;;;;;;;;;;;;;;;;;;5075719;28;20305;-56
2022/11/14 00:30:49;;;;;;;;;;;;;;;;;;5092631;28;19931;-55
2022/11/14 00:33:16;;;;;;;;;;;;;;;;;;5076611;28;19970;-58
2022/11/14 00:35:49;;;;;;;;;;;;;;;;;;5072778;28;19924;-54
2022/11/14 00:38:16;;;;;;;;;;;;;;;;;;5075956;28;19932;-55
2022/11/14 00:40:43;;;;;;;;;;;;;;;;;;5085645;28;19931;-56
2022/11/14 00:43:10;;;;;;;;;;;;;;;;;;5076566;28;19924;-54
2022/11/14 00:45:37;;;;;;;;;;;;;;;;;;5091371;28;19928;-58
2022/11/14 00:48:04;;;;;;;;;;;;;;;;;;5080412;28;19947;-58
2022/11/14 00:50:30;;;;;;;;;;;;;;;;;;5083701;28;19924;-56
2022/11/14 00:52:57;;;;;;;;;;;;;;;;;;5079261;28;20442;-58
2022/11/14 00:55:23;;;;;;;;;;;;;;;;;;5088436;28;19927;-58
2022/11/14 00:57:50;;;;;;;;;;;;;;;;;;5073714;28;19929;-53
2022/11/14 01:00:18;;;;;;;;;;;;;;;;;;5074366;28;19932;-54
2022/11/14 01:02:45;;;;;;;;;;;;;;;;;;5078997;28;19925;-54
2022/11/14 01:05:12;;;;;;;;;;;;;;;;;;5083761;28;19928;-52
2022/11/14 01:07:38;;;;;;;;;;;;;;;;;;5075156;28;19978;-54
2022/11/14 01:10:06;;;;;;;;;;;;;;;;;;5088394;28;19924;-51
2022/11/14 01:12:33;;;;;;;;;;;;;;;;;;5075244;28;19924;-52
2022/11/14 01:15:00;;;;;;;;;;;;;;;;;;5077489;28;19924;-53
2022/11/14 01:17:28;;;;;;;;;;;;;;;;;;5066880;28;20335;-51
2022/11/14 01:19:55;;;;;;;;;;;;;;;;;;5088656;28;19987;-51
2022/11/14 01:22:21;;;;;;;;;;;;;;;;;;5075063;28;20203;-52
2022/11/14 01:24:48;;;;;;;;;;;;;;;;;;5091372;28;19951;-54
2022/11/14 01:27:15;;;;;;;;;;;;;;;;;;5074879;28;19928;-52
2022/11/14 01:29:43;;;;;;;;;;;;;;;;;;5074534;28;20023;-57
2022/11/14 01:32:10;;;;;;;;;;;;;;;;;;5076447;28;19940;-58
2022/11/14 01:34:38;;;;;;;;;;;;;;;;;;5072714;28;19932;-55
2022/11/14 01:37:05;;;;;;;;;;;;;;;;;;5072105;28;19928;-55
2022/11/14 01:39:31;;;;;;;;;;;;;;;;;;5085821;28;20373;-55
2022/11/14 01:41:58;;;;;;;;;;;;;;;;;;5079532;28;19928;-54
2022/11/14 01:44:48;;;;;;;;;;;;;;;;;;5092552;28;20011;-54
2022/11/14 01:47:18;;;;;;;;;;;;;;;;;;5057415;28;19936;-57
2022/11/14 01:49:47;;;;;;;;;;;;;;;;;;5072661;28;19951;-53
2022/11/14 01:52:15;;;;;;;;;;;;;;;;;;5072361;28;20270;-57
2022/11/14 01:54:45;;;;;;;;;;;;;;;;;;5081459;28;20008;-56
2022/11/14 01:57:12;;;;;;;;;;;;;;;;;;5072488;28;19925;-55
2022/11/14 01:59:42;;;;;;;;;;;;;;;;;;5087711;28;19932;-55
2022/11/14 02:02:13;;;;;;;;;;;;;;;;;;5085675;28;20355;-52
2022/11/14 02:04:42;;;;;;;;;;;;;;;;;;5072378;28;20374;-56
2022/11/14 02:07:11;;;;;;;;;;;;;;;;;;5072566;28;20347;-52
2022/11/14 02:09:39;;;;;;;;;;;;;;;;;;5060484;28;19935;-53
2022/11/14 02:12:08;;;;;;;;;;;;;;;;;;5093782;28;19924;-54
2022/11/14 02:14:36;;;;;;;;;;;;;;;;;;5075763;28;19924;-52
2022/11/14 02:17:02;;;;;;;;;;;;;;;;;;5075867;28;19925;-55
2022/11/14 02:19:40;;;;;;;;;;;;;;;;;;5085652;28;19929;-55
2022/11/14 02:22:11;;;;;;;;;;;;;;;;;;5093353;28;19931;-55
2022/11/14 02:24:38;;;;;;;;;;;;;;;;;;5092713;28;19990;-55
2022/11/14 02:27:06;;;;;;;;;;;;;;;;;;5075713;28;19932;-55
2022/11/14 02:29:33;;;;;;;;;;;;;;;;;;5088381;28;20041;-54
2022/11/14 02:31:59;;;;;;;;;;;;;;;;;;5079567;28;20373;-55
2022/11/14 02:34:26;;;;;;;;;;;;;;;;;;5082219;28;19947;-55
2022/11/14 02:36:53;;;;;;;;;;;;;;;;;;5075099;28;19924;-53
2022/11/14 02:39:21;;;;;;;;;;;;;;;;;;5075305;28;19925;-54
2022/11/14 02:41:47;;;;;;;;;;;;;;;;;;5075689;28;19924;-55
2022/11/14 02:44:14;;;;;;;;;;;;;;;;;;5076777;28;19928;-56
2022/11/14 02:46:40;;;;;;;;;;;;;;;;;;5078734;28;19932;-53
2022/11/14 02:49:07;;;;;;;;;;;;;;;;;;5094340;28;19924;-55
2022/11/14 02:51:34;;;;;;;;;;;;;;;;;;5089907;28;19931;-57
2022/11/14 02:54:00;;;;;;;;;;;;;;;;;;5080478;28;19931;-55
2022/11/14 02:56:28;;;;;;;;;;;;;;;;;;5076382;28;20344;-56
2022/11/14 02:58:55;;;;;;;;;;;;;;;;;;5075311;28;19924;-56
2022/11/14 03:01:21;;;;;;;;;;;;;;;;;;5076339;28;19932;-56
2022/11/14 03:03:48;;;;;;;;;;;;;;;;;;5086339;28;19970;-54
2022/11/14 03:06:15;;;;;;;;;;;;;;;;;;5095467;28;19931;-56
2022/11/14 03:08:41;;;;;;;;;;;;;;;;;;5082354;28;19924;-55
2022/11/14 03:11:09;;;;;;;;;;;;;;;;;;5080301;28;19925;-56
2022/11/14 03:13:37;;;;;;;;;;;;;;;;;;5085865;28;19936;-52
2022/11/14 03:16:07;;;;;;;;;;;;;;;;;;5075072;28;20339;-52
2022/11/14 03:18:33;;;;;;;;;;;;;;;;;;5077724;28;19996;-54
2022/11/14 03:21:04;;;;;;;;;;;;;;;;;;5075913;28;20356;-56
2022/11/14 03:23:31;;;;;;;;;;;;;;;;;;5073382;28;19978;-56
2022/11/14 03:25:59;;;;;;;;;;;;;;;;;;5074326;28;19924;-53
2022/11/14 03:28:25;;;;;;;;;;;;;;;;;;5075671;28;19933;-53
2022/11/14 03:30:53;;;;;;;;;;;;;;;;;;5063421;28;19924;-54
2022/11/14 03:33:20;;;;;;;;;;;;;;;;;;5094445;28;20380;-53
2022/11/14 03:35:46;;;;;;;;;;;;;;;;;;5078124;28;19932;-56
2022/11/14 03:38:13;;;;;;;;;;;;;;;;;;5094403;28;19931;-53
2022/11/14 03:40:40;;;;;;;;;;;;;;;;;;5077525;28;19936;-56
2022/11/14 03:43:06;;;;;;;;;;;;;;;;;;5074272;28;19931;-55
2022/11/14 03:45:33;;;;;;;;;;;;;;;;;;5079715;28;19924;-55
2022/11/14 03:48:04;;;;;;;;;;;;;;;;;;5073480;28;19929;-53
2022/11/14 03:50:30;;;;;;;;;;;;;;;;;;5089966;28;19929;-57
2022/11/14 03:52:57;;;;;;;;;;;;;;;;;;5073588;28;19928;-53
2022/11/14 03:55:23;;;;;;;;;;;;;;;;;;5079977;28;19924;-55
2022/11/14 03:57:50;;;;;;;;;;;;;;;;;;5085102;28;20274;-57
2022/11/14 04:00:17;;;;;;;;;;;;;;;;;;5074741;28;19925;-54
2022/11/14 04:02:43;;;;;;;;;;;;;;;;;;5081901;28;20296;-54
2022/11/14 04:05:11;;;;;;;;;;;;;;;;;;5093926;28;20373;-55
2022/11/14 04:07:38;;;;;;;;;;;;;;;;;;5093912;28;19924;-53
2022/11/14 04:10:05;;;;;;;;;;;;;;;;;;5089874;28;19993;-54
2022/11/14 04:12:32;;;;;;;;;;;;;;;;;;5073876;28;20374;-55
2022/11/14 04:14:58;;;;;;;;;;;;;;;;;;5073476;28;20364;-55
2022/11/14 04:17:25;;;;;;;;;;;;;;;;;;5088377;28;19939;-55
2022/11/14 04:19:52;;;;;;;;;;;;;;;;;;5076127;28;20320;-56
2022/11/14 04:22:20;;;;;;;;;;;;;;;;;;5092227;28;19924;-53
2022/11/14 04:24:46;;;;;;;;;;;;;;;;;;5073425;28;19924;-55
2022/11/14 04:27:13;;;;;;;;;;;;;;;;;;5074743;28;19924;-56
2022/11/14 04:29:39;;;;;;;;;;;;;;;;;;5084635;28;19931;-57
2022/11/14 04:32:06;;;;;;;;;;;;;;;;;;5093638;28;19924;-54
2022/11/14 04:34:33;;;;;;;;;;;;;;;;;;5091433;28;19931;-55
2022/11/14 04:36:59;;;;;;;;;;;;;;;;;;5093273;28;19924;-54
2022/11/14 04:39:27;;;;;;;;;;;;;;;;;;5093041;28;19931;-51
2022/11/14 04:41:54;;;;;;;;;;;;;;;;;;5093650;28;19930;-53
2022/11/14 04:44:21;;;;;;;;;;;;;;;;;;5092791;28;19962;-54
2022/11/14 04:46:47;;;;;;;;;;;;;;;;;;5079777;28;19925;-54
2022/11/14 04:49:14;;;;;;;;;;;;;;;;;;5077566;28;20404;-54
2022/11/14 04:51:41;;;;;;;;;;;;;;;;;;5093056;28;19931;-53
2022/11/14 04:54:09;;;;;;;;;;;;;;;;;;5075544;28;20007;-53
2022/11/14 04:56:37;;;;;;;;;;;;;;;;;;5072490;28;19968;-54
2022/11/14 04:59:04;;;;;;;;;;;;;;;;;;5072787;28;19931;-54
2022/11/14 05:01:30;;;;;;;;;;;;;;;;;;5072426;28;19928;-52
2022/11/14 05:03:57;;;;;;;;;;;;;;;;;;5076071;28;20332;-52
2022/11/14 05:06:23;;;;;;;;;;;;;;;;;;5092751;28;19957;-50
2022/11/14 05:08:50;;;;;;;;;;;;;;;;;;5082982;28;19936;-51
2022/11/14 05:11:17;;;;;;;;;;;;;;;;;;5092761;22;20845;-81
2022/11/14 05:13:45;;;;;;;;;;;;;;;;;;5095737;28;19975;-78
2022/11/14 05:16:12;;;;;;;;;;;;;;;;;;5100638;28;19991;-78
2022/11/14 05:18:39;;;;;;;;;;;;;;;;;;5117155;28;19971;-78
2022/11/14 05:21:06;;;;;;;;;;;;;;;;;;5115746;28;19974;-79
2022/11/14 05:23:32;;;;;;;;;;;;;;;;;;5104107;28;19951;-80
2022/11/14 05:26:00;;;;;;;;;;;;;;;;;;5106654;28;19932;-80
2022/11/14 05:28:26;;;;;;;;;;;;;;;;;;5106398;28;19958;-79
2022/11/14 05:31:00;;;;;;;;;;;;;;;;;;5100494;28;19924;-80
2022/11/14 05:33:26;;;;;;;;;;;;;;;;;;5104776;28;20339;-81
2022/11/14 05:35:52;;;;;;;;;;;;;;;;;;5102426;28;19967;-80
2022/11/14 05:38:19;;;;;;;;;;;;;;;;;;5089052;28;19950;-80
2022/11/14 05:40:45;;;;;;;;;;;;;;;;;;5089913;28;20022;-81
2022/11/14 05:43:12;;;;;;;;;;;;;;;;;;5090367;28;19971;-80
2022/11/14 05:45:38;;;;;;;;;;;;;;;;;;5094351;28;19924;-80
2022/11/14 05:48:06;;;;;;;;;;;;;;;;;;5102519;28;19932;-81
2022/11/14 05:50:33;;;;;;;;;;;;;;;;;;5092714;28;19968;-82
2022/11/14 05:52:59;;;;;;;;;;;;;;;;;;5095505;28;19960;-80
2022/11/14 05:55:26;;;;;;;;;;;;;;;;;;5109824;28;19924;-78
2022/11/14 05:57:52;;;;;;;;;;;;;;;;;;5091941;28;20421;-79
2022/11/14 06:00:32;;;;;;;;;;;;;;;;;;5096336;28;19954;-81
2022/11/14 06:02:59;;;;;;;;;;;;;;;;;;5088194;28;19960;-81
2022/11/14 06:05:26;;;;;;;;;;;;;;;;;;5095101;28;19924;-81
2022/11/14 06:11:01;;;;;;;;;;;;;;;;;;5085431;28;19991;-79
2022/11/14 06:13:27;;;;;;;;;;;;;;;;;;5089722;28;19992;-80
2022/11/14 06:15:58;;;;;;;;;;;;;;;;;;5090446;28;19968;-82
2022/11/14 06:18:24;;;;;;;;;;;;;;;;;;5094255;28;19928;-80
2022/11/14 06:20:52;;;;;;;;;;;;;;;;;;5108028;28;20039;-81
2022/11/14 06:23:18;;;;;;;;;;;;;;;;;;5091118;28;19996;-80
2022/11/14 06:25:45;;;;;;;;;;;;;;;;;;5092024;28;19929;-81
2022/11/14 06:28:11;;;;;;;;;;;;;;;;;;5091365;28;19924;-80
2022/11/14 06:30:40;;;;;;;;;;;;;;;;;;5091056;28;19936;-81
2022/11/14 06:33:06;;;;;;;;;;;;;;;;;;5092533;28;19925;-80
2022/11/14 06:35:33;;;;;;;;;;;;;;;;;;5103972;28;19964;-80
2022/11/14 06:38:00;;;;;;;;;;;;;;;;;;5110859;28;19967;-80
2022/11/14 06:40:27;;;;;;;;;;;;;;;;;;5111585;28;20010;-79
2022/11/14 06:42:55;;;;;;;;;;;;;;;;;;5108541;28;19938;-79
2022/11/14 06:45:21;;;;;;;;;;;;;;;;;;5089363;28;19931;-81
2022/11/14 06:47:47;;;;;;;;;;;;;;;;;;5089745;28;19935;-80
2022/11/14 06:50:14;;;;;;;;;;;;;;;;;;5089313;28;19925;-80
2022/11/14 06:52:40;;;;;;;;;;;;;;;;;;5090372;28;20417;-79
2022/11/14 06:55:08;;;;;;;;;;;;;;;;;;5088727;28;19931;-81
2022/11/14 06:57:35;;;;;;;;;;;;;;;;;;5109848;28;19928;-80
2022/11/14 07:00:01;;;;;;;;;;;;;;;;;;5107766;28;19930;-80
2022/11/14 07:02:27;;;;;;;;;;;;;;;;;;5107950;28;19924;-78
2022/11/14 07:04:54;;;;;;;;;;;;;;;;;;5108622;28;19986;-79
2022/11/14 07:07:20;;;;;;;;;;;;;;;;;;5109355;28;19923;-79
2022/11/14 07:09:47;;;;;;;;;;;;;;;;;;5107030;28;19955;-80
2022/11/14 07:12:14;;;;;;;;;;;;;;;;;;5108521;28;19924;-79
2022/11/14 07:17:44;;;;;;;;;;;;;;;;;;5086921;28;19995;-80
2022/11/14 07:20:10;;;;;;;;;;;;;;;;;;5101465;28;19930;-80
2022/11/14 07:22:37;;;;;;;;;;;;;;;;;;5106533;28;19939;-79
2022/11/14 07:25:03;;;;;;;;;;;;;;;;;;5105492;28;20003;-80
2022/11/14 07:28:01;;;;;;;;;;;;;;;;;;5086164;28;19925;-81
2022/11/14 07:30:28;;;;;;;;;;;;;;;;;;5089687;28;19931;-80
2022/11/14 07:32:55;;;;;;;;;;;;;;;;;;5109136;28;19991;-81
2022/11/14 07:35:22;;;;;;;;;;;;;;;;;;5107529;28;19924;-78
2022/11/14 07:37:48;;;;;;;;;;;;;;;;;;5113638;28;19924;-77
2022/11/14 07:40:15;;;;;;;;;;;;;;;;;;5115484;28;19920;-80
2022/11/14 07:42:42;;;;;;;;;;;;;;;;;;5096771;28;19924;-79
2022/11/14 07:45:09;;;;;;;;;;;;;;;;;;5093235;28;19996;-79
2022/11/14 07:47:39;;;;;;;;;;;;;;;;;;5098610;28;19928;-79
2022/11/14 07:50:09;;;;;;;;;;;;;;;;;;5109466;28;19971;-81
2022/11/14 07:52:36;;;;;;;;;;;;;;;;;;5106201;28;19951;-81
2022/11/14 07:55:02;;;;;;;;;;;;;;;;;;5106012;28;20011;-80
2022/11/14 07:57:29;;;;;;;;;;;;;;;;;;5086509;28;19978;-78
2022/11/14 07:59:55;;;;;;;;;;;;;;;;;;5089231;28;19928;-79
2022/11/14 08:02:28;;;;;;;;;;;;;;;;;;5103783;28;19924;-81
2022/11/14 08:05:01;;;;;;;;;;;;;;;;;;5101187;28;19932;-79
2022/11/14 08:07:27;;;;;;;;;;;;;;;;;;5094925;28;19925;-79
2022/11/14 08:09:57;;;;;;;;;;;;;;;;;;5096356;28;19980;-81
2022/11/14 08:12:23;;;;;;;;;;;;;;;;;;5103356;28;19924;-81
2022/11/14 08:14:50;;;;;;;;;;;;;;;;;;5092421;28;19931;-81
2022/11/14 08:17:16;;;;;;;;;;;;;;;;;;5091169;28;19959;-80
2022/11/14 08:22:19;;;;;;;;;;;;;;;;;;5329347;22;19951;-76
2022/11/14 08:24:46;;;;;;;;;;;;;;;;;;5100184;28;20021;-75
2022/11/14 08:30:15;;;;;;;;;;;;;;;;;;5095649;28;19923;-74
2022/11/14 08:32:42;;;;;;;;;;;;;;;;;;5081235;28;19925;-75
2022/11/14 08:35:08;;;;;;;;;;;;;;;;;;5075702;28;19932;-75
2022/11/14 08:37:36;;;;;;;;;;;;;;;;;;5077872;28;19946;-76
2022/11/14 08:40:03;;;;;;;;;;;;;;;;;;5078366;28;19924;-76
2022/11/14 08:42:29;;;;;;;;;;;;;;;;;;5081985;28;19924;-74
2022/11/14 08:44:56;;;;;;;;;;;;;;;;;;5080937;28;20024;-74
2022/11/14 08:47:22;;;;;;;;;;;;;;;;;;5086030;28;20007;-75
2022/11/14 08:49:49;;;;;;;;;;;;;;;;;;5091591;28;19970;-76
2022/11/14 08:52:15;;;;;;;;;;;;;;;;;;5091123;28;20417;-76
2022/11/14 08:54:43;;;;;;;;;;;;;;;;;;5080632;28;20390;-77
2022/11/14 08:57:10;;;;;;;;;;;;;;;;;;5075515;28;19924;-76
2022/11/14 08:59:37;;;;;;;;;;;;;;;;;;5076826;28;19975;-75
2022/11/14 09:02:03;;;;;;;;;;;;;;;;;;5081548;28;19934;-75
2022/11/14 09:04:30;;;;;;;;;;;;;;;;;;5079399;28;20020;-75
2022/11/14 09:06:57;;;;;;;;;;;;;;;;;;5071607;28;19924;-75
2022/11/14 09:09:23;;;;;;;;;;;;;;;;;;5065230;28;20444;-74
2022/11/14 09:11:51;;;;;;;;;;;;;;;;;;5050927;28;19925;-75
2022/11/14 09:14:18;;;;;;;;;;;;;;;;;;5069119;28;19987;-74
2022/11/14 09:16:46;;;;;;;;;;;;;;;;;;5090942;28;20010;-75
2022/11/14 09:19:13;;;;;;;;;;;;;;;;;;5071571;28;20439;-76
2022/11/14 09:21:39;;;;;;;;;;;;;;;;;;5069773;28;19930;-77
2022/11/14 09:24:06;;;;;;;;;;;;;;;;;;5071342;28;19972;-76
2022/11/14 09:26:32;;;;;;;;;;;;;;;;;;5070487;28;19925;-77
2022/11/14 09:29:01;;;;;;;;;;;;;;;;;;5070681;28;19947;-76
2022/11/14 09:31:28;;;;;;;;;;;;;;;;;;5070212;28;19924;-77
2022/11/14 09:33:54;;;;;;;;;;;;;;;;;;5070555;28;20379;-76
2022/11/14 09:36:22;;;;;;;;;;;;;;;;;;5070715;28;19929;-76
2022/11/14 09:38:50;;;;;;;;;;;;;;;;;;5070575;28;19982;-76
2022/11/14 09:41:24;;;;;;;;;;;;;;;;;;5070336;28;20015;-75
2022/11/14 09:44:08;;;;;;;;;;;;;;;;;;5070599;28;19932;-75
2022/11/14 09:46:40;;;;;;;;;;;;;;;;;;5039356;28;20034;-76
2022/11/14 09:49:08;;;;;;;;;;;;;;;;;;5070668;28;19931;-75
2022/11/14 09:51:39;;;;;;;;;;;;;;;;;;5070195;28;20390;-76
2022/11/14 09:54:11;;;;;;;;;;;;;;;;;;5070560;28;19929;-77
2022/11/14 09:56:37;;;;;;;;;;;;;;;;;;5069910;28;20400;-75
2022/11/14 09:59:08;;;;;;;;;;;;;;;;;;5072773;28;20282;-80
2022/11/14 10:01:40;;;;;;;;;;;;;;;;;;5077884;28;19971;-80
2022/11/14 10:04:14;;;;;;;;;;;;;;;;;;5080295;28;20043;-77
2022/11/14 10:06:45;;;;;;;;;;;;;;;;;;5071818;28;19974;-77
2022/11/14 10:09:29;;;;;;;;;;;;;;;;;;5073587;28;19930;-77
2022/11/14 10:11:59;;;;;;;;;;;;;;;;;;5072189;28;19930;-75
2022/11/14 10:14:40;;;;;;;;;;;;;;;;;;5075751;28;19924;-76
2022/11/14 10:17:12;;;;;;;;;;;;;;;;;;5069036;28;20489;-76
2022/11/14 10:19:44;;;;;;;;;;;;;;;;;;5070184;28;20019;-75
2022/11/14 10:22:18;;;;;;;;;;;;;;;;;;5069736;28;20191;-76
2022/11/14 10:24:55;;;;;;;;;;;;;;;;;;5069988;28;19968;-76
2022/11/14 10:27:25;;;;;;;;;;;;;;;;;;5070021;28;19930;-76
2022/11/14 10:30:06;;;;;;;;;;;;;;;;;;5070298;28;19978;-75
2022/11/14 10:32:37;;;;;;;;;;;;;;;;;;5071433;28;19955;-75
2022/11/14 11:04:27;;;;;;;;;;;;;;;;;;1521392;25;20440;-52
2022/11/14 11:06:57;;;;;;;;;;;;;;;;;;5113708;28;20652;-54
2022/11/14 11:12:14;;;;;;;;;;;;;;;;;;5091916;28;20002;-54
2022/11/14 11:14:40;;;;;;;;;;;;;;;;;;5093154;28;20032;-55
2022/11/14 11:17:08;;;;;;;;;;;;;;;;;;5092937;28;20012;-56
2022/11/14 11:19:35;;;;;;;;;;;;;;;;;;5093374;28;19964;-55
2022/11/14 11:22:03;;;;;;;;;;;;;;;;;;5092959;28;19963;-55
2022/11/14 11:24:31;;;;;;;;;;;;;;;;;;5093467;28;19928;-56
2022/11/14 11:27:14;;;;;;;;;;;;;;;;;;5092630;28;20011;-57
2022/11/14 11:29:40;;;;;;;;;;;;;;;;;;5093616;28;20495;-56
2022/11/14 11:32:07;;;;;;;;;;;;;;;;;;5093503;28;20343;-54
2022/11/14 11:34:34;;;;;;;;;;;;;;;;;;5093431;28;19924;-56
2022/11/14 11:37:05;;;;;;;;;;;;;;;;;;5093205;28;19924;-52
2022/11/14 11:39:33;;;;;;;;;;;;;;;;;;5091985;28;19977;-55
2022/11/14 11:42:02;;;;;;;;;;;;;;;;;;5091742;28;19954;-53
2022/11/14 11:44:33;;;;;;;;;;;;;;;;;;5091156;28;19970;-52
2022/11/14 11:47:01;;;;;;;;;;;;;;;;;;5089908;28;20012;-54
2022/11/14 11:49:35;;;;;;;;;;;;;;;;;;5092343;28;19924;-52
2022/11/14 11:52:04;;;;;;;;;;;;;;;;;;5092094;28;19924;-52
2022/11/14 11:54:33;;;;;;;;;;;;;;;;;;5092222;28;19928;-55
2022/11/14 11:57:01;;;;;;;;;;;;;;;;;;5092443;28;19978;-55
2022/11/14 11:59:32;;;;;;;;;;;;;;;;;;5092109;28;19924;-55
2022/11/14 12:01:59;;;;;;;;;;;;;;;;;;5091301;28;19924;-52
2022/11/14 12:04:25;;;;;;;;;;;;;;;;;;5091398;28;19970;-54
2022/11/14 12:06:55;;;;;;;;;;;;;;;;;;5091947;28;19928;-56
2022/11/14 12:09:25;;;;;;;;;;;;;;;;;;5091517;28;20387;-56
2022/11/14 12:11:54;;;;;;;;;;;;;;;;;;5090982;28;19928;-55
2022/11/14 12:14:41;;;;;;;;;;;;;;;;;;5091549;28;19932;-56
2022/11/14 12:17:21;;;;;;;;;;;;;;;;;;5090026;28;20099;-55
2022/11/14 12:20:02;;;;;;;;;;;;;;;;;;5089713;28;20041;-55
2022/11/14 12:22:35;;;;;;;;;;;;;;;;;;5080577;28;19932;-57
2022/11/14 12:25:20;;;;;;;;;;;;;;;;;;5091525;28;20013;-55
2022/11/14 12:27:56;;;;;;;;;;;;;;;;;;5091509;28;20485;-56
2022/11/14 12:30:23;;;;;;;;;;;;;;;;;;5088878;28;19969;-55
2022/11/14 12:32:51;;;;;;;;;;;;;;;;;;5087438;28;19928;-56
2022/11/14 12:35:20;;;;;;;;;;;;;;;;;;5090458;28;20434;-55
2022/11/14 12:37:49;;;;;;;;;;;;;;;;;;5091541;28;19928;-55
2022/11/14 12:40:24;;;;;;;;;;;;;;;;;;5091130;28;19928;-57
2022/11/14 12:42:52;;;;;;;;;;;;;;;;;;5088566;28;19981;-61
2022/11/14 12:45:37;;;;;;;;;;;;;;;;;;5090132;28;19924;-56
2022/11/14 12:48:21;;;;;;;;;;;;;;;;;;5091290;28;19944;-54
2022/11/14 12:50:48;;;;;;;;;;;;;;;;;;5091480;28;20437;-55
2022/11/14 12:53:35;;;;;;;;;;;;;;;;;;5091495;28;19977;-54
2022/11/14 12:56:14;;;;;;;;;;;;;;;;;;5079113;28;20465;-53
2022/11/14 12:58:59;;;;;;;;;;;;;;;;;;5090974;28;19977;-55
2022/11/14 13:01:36;;;;;;;;;;;;;;;;;;5090983;28;20377;-55
2022/11/14 13:04:08;;;;;;;;;;;;;;;;;;5091017;28;19924;-56
2022/11/14 13:06:42;;;;;;;;;;;;;;;;;;5091320;28;19924;-53
2022/11/14 13:09:26;;;;;;;;;;;;;;;;;;5090701;28;20014;-54
2022/11/14 13:23:31;;;;;;;;;;;;;;;;;;5090776;28;19970;-53
2022/11/14 13:26:12;;;;;;;;;;;;;;;;;;5083582;28;20439;-54
2022/11/14 13:28:46;;;;;;;;;;;;;;;;;;5089663;28;19924;-54
2022/11/14 13:31:21;;;;;;;;;;;;;;;;;;5090889;28;20396;-54
2022/11/14 13:33:49;;;;;;;;;;;;;;;;;;5090905;28;20422;-54
2022/11/14 13:36:20;;;;;;;;;;;;;;;;;;5090642;28;20015;-53
2022/11/14 13:39:06;;;;;;;;;;;;;;;;;;5096706;28;20481;-54
2022/11/14 13:41:55;;;;;;;;;;;;;;;;;;5102547;28;20543;-53
2022/11/14 13:44:40;;;;;;;;;;;;;;;;;;5090113;28;19969;-56
2022/11/14 13:47:17;;;;;;;;;;;;;;;;;;5089514;28;19931;-63
2022/11/14 13:49:53;;;;;;;;;;;;;;;;;;5090250;28;19924;-65
2022/11/14 13:52:20;;;;;;;;;;;;;;;;;;5090412;28;19928;-54
2022/11/14 13:54:47;;;;;;;;;;;;;;;;;;5090363;28;20427;-53
2022/11/14 13:57:19;;;;;;;;;;;;;;;;;;5090260;28;20023;-56
2022/11/14 13:59:52;;;;;;;;;;;;;;;;;;5090140;28;19925;-55
2022/11/14 14:02:31;;;;;;;;;;;;;;;;;;5089794;28;20358;-55
2022/11/14 14:05:02;;;;;;;;;;;;;;;;;;5090081;28;19928;-57
2022/11/14 14:07:34;;;;;;;;;;;;;;;;;;5090736;28;20270;-54
2022/11/14 14:10:05;;;;;;;;;;;;;;;;;;5093801;28;19928;-61
2022/11/14 14:12:39;;;;;;;;;;;;;;;;;;5093515;28;20126;-54
2022/11/14 14:15:14;;;;;;;;;;;;;;;;;;5082269;28;19954;-61
2022/11/14 14:17:49;;;;;;;;;;;;;;;;;;5090303;28;19924;-55
2022/11/14 14:20:19;;;;;;;;;;;;;;;;;;5094100;28;20282;-53
2022/11/14 14:22:50;;;;;;;;;;;;;;;;;;5082708;28;19924;-55
2022/11/14 14:25:19;;;;;;;;;;;;;;;;;;5093610;28;19947;-54
2022/11/14 14:27:52;;;;;;;;;;;;;;;;;;5094158;28;19928;-54
2022/11/14 14:30:19;;;;;;;;;;;;;;;;;;5089868;28;19924;-53
2022/11/14 14:33:01;;;;;;;;;;;;;;;;;;5092172;28;19935;-55
2022/11/14 14:35:30;;;;;;;;;;;;;;;;;;5092189;28;19931;-55
2022/11/14 14:37:57;;;;;;;;;;;;;;;;;;5090824;28;20037;-57
2022/11/14 14:40:25;;;;;;;;;;;;;;;;;;5093723;28;19981;-55
2022/11/14 14:42:52;;;;;;;;;;;;;;;;;;5092710;28;19928;-54
2022/11/14 14:45:19;;;;;;;;;;;;;;;;;;5084439;28;19978;-56
2022/11/14 14:47:48;;;;;;;;;;;;;;;;;;5088551;28;20564;-53
2022/11/14 14:50:16;;;;;;;;;;;;;;;;;;5093482;28;19924;-55
2022/11/14 14:52:44;;;;;;;;;;;;;;;;;;5093344;28;19925;-56
2022/11/14 14:55:19;;;;;;;;;;;;;;;;;;5092589;28;19960;-55
2022/11/14 14:57:46;;;;;;;;;;;;;;;;;;5092863;28;20404;-55
2022/11/14 15:00:17;;;;;;;;;;;;;;;;;;5092528;28;19924;-52
2022/11/14 15:02:44;;;;;;;;;;;;;;;;;;5094262;28;20068;-63
2022/11/14 15:05:10;;;;;;;;;;;;;;;;;;5092424;28;20281;-57
2022/11/14 15:07:38;;;;;;;;;;;;;;;;;;5092952;28;19924;-55
2022/11/14 15:10:07;;;;;;;;;;;;;;;;;;5092764;28;19985;-55
2022/11/14 15:12:34;;;;;;;;;;;;;;;;;;5090885;28;19977;-55
2022/11/14 15:15:01;;;;;;;;;;;;;;;;;;5092192;28;19970;-56
2022/11/14 15:17:28;;;;;;;;;;;;;;;;;;5092864;28;19977;-53
2022/11/14 15:19:55;;;;;;;;;;;;;;;;;;5091071;28;19924;-55
2022/11/14 15:22:27;;;;;;;;;;;;;;;;;;5092621;28;19924;-56
2022/11/14 15:25:18;;;;;;;;;;;;;;;;;;5092934;28;19928;-56
2022/11/14 15:27:45;;;;;;;;;;;;;;;;;;5092729;28;20578;-56
2022/11/14 15:30:20;;;;;;;;;;;;;;;;;;5092602;28;19924;-55
2022/11/14 15:32:50;;;;;;;;;;;;;;;;;;5092654;28;20568;-55
2022/11/14 15:35:27;;;;;;;;;;;;;;;;;;5093108;28;19928;-57
2022/11/14 15:38:02;;;;;;;;;;;;;;;;;;5093053;28;20005;-56
2022/11/14 15:40:30;;;;;;;;;;;;;;;;;;5092579;28;20312;-55
2022/11/14 15:42:59;;;;;;;;;;;;;;;;;;5091180;28;19924;-54
2022/11/14 15:45:27;;;;;;;;;;;;;;;;;;5090883;28;20377;-53
2022/11/14 15:48:04;;;;;;;;;;;;;;;;;;5092259;28;19935;-53
2022/11/14 15:50:32;;;;;;;;;;;;;;;;;;5092064;28;19931;-56
2022/11/14 15:53:00;;;;;;;;;;;;;;;;;;5091897;28;19924;-55
2022/11/14 15:55:27;;;;;;;;;;;;;;;;;;5092281;28;20319;-55
2022/11/14 15:57:55;;;;;;;;;;;;;;;;;;5091669;28;19931;-50
2022/11/14 16:00:22;;;;;;;;;;;;;;;;;;5091580;28;19924;-58
2022/11/14 16:02:50;;;;;;;;;;;;;;;;;;5091030;28;19939;-57
2022/11/14 16:05:18;;;;;;;;;;;;;;;;;;5091288;28;19974;-56
2022/11/14 16:07:45;;;;;;;;;;;;;;;;;;5092333;28;20474;-57
2022/11/14 16:10:15;;;;;;;;;;;;;;;;;;5091524;28;19924;-57
2022/11/14 16:12:42;;;;;;;;;;;;;;;;;;5090161;28;20339;-56
2022/11/14 16:15:10;;;;;;;;;;;;;;;;;;5091871;28;19977;-54
2022/11/14 16:17:37;;;;;;;;;;;;;;;;;;5091987;28;20010;-55
2022/11/14 16:20:05;;;;;;;;;;;;;;;;;;5091741;28;19924;-55
2022/11/14 16:22:32;;;;;;;;;;;;;;;;;;5090879;28;20461;-56
2022/11/14 16:24:59;;;;;;;;;;;;;;;;;;5091668;28;19924;-55
2022/11/14 16:27:25;;;;;;;;;;;;;;;;;;5091549;28;19924;-56
2022/11/14 16:29:52;;;;;;;;;;;;;;;;;;5091253;28;19928;-55
2022/11/14 16:32:22;;;;;;;;;;;;;;;;;;5091155;28;19939;-56
2022/11/14 16:34:48;;;;;;;;;;;;;;;;;;5091788;28;20304;-57
2022/11/14 16:37:15;;;;;;;;;;;;;;;;;;5091544;28;19993;-55
2022/11/14 16:39:41;;;;;;;;;;;;;;;;;;5089597;28;19924;-55
2022/11/14 16:42:10;;;;;;;;;;;;;;;;;;5089884;28;19991;-54
2022/11/14 16:44:36;;;;;;;;;;;;;;;;;;5091683;28;19953;-56
2022/11/14 16:47:03;;;;;;;;;;;;;;;;;;5091259;28;19931;-52
2022/11/14 16:49:31;;;;;;;;;;;;;;;;;;5090375;28;19928;-56
2022/11/14 16:52:01;;;;;;;;;;;;;;;;;;5076613;28;19924;-55
2022/11/14 16:54:28;;;;;;;;;;;;;;;;;;5091840;28;20412;-54
2022/11/14 16:56:56;;;;;;;;;;;;;;;;;;5090926;28;19946;-54
2022/11/14 16:59:22;;;;;;;;;;;;;;;;;;5090854;28;19930;-55
2022/11/14 17:01:49;;;;;;;;;;;;;;;;;;5090869;28;19954;-55
2022/11/14 17:04:15;;;;;;;;;;;;;;;;;;5090923;28;19973;-55
2022/11/14 17:06:43;;;;;;;;;;;;;;;;;;5089663;28;19928;-53
2022/11/14 17:09:12;;;;;;;;;;;;;;;;;;5090457;28;19924;-53
2022/11/14 17:11:38;;;;;;;;;;;;;;;;;;5090739;28;19977;-56
2022/11/14 17:14:05;;;;;;;;;;;;;;;;;;5091403;28;19923;-55
2022/11/14 17:16:31;;;;;;;;;;;;;;;;;;5090705;28;20381;-56
2022/11/14 17:18:58;;;;;;;;;;;;;;;;;;5110843;22;20334;-54
2022/11/14 17:21:25;;;;;;;;;;;;;;;;;;5110896;28;19954;-55
2022/11/14 17:23:59;;;;;;;;;;;;;;;;;;5111703;28;20018;-54
2022/11/14 17:26:26;;;;;;;;;;;;;;;;;;5112159;28;20452;-53
2022/11/14 17:28:52;;;;;;;;;;;;;;;;;;5111124;28;19924;-54
2022/11/14 17:31:19;;;;;;;;;;;;;;;;;;5111895;28;20037;-50
2022/11/14 17:33:51;;;;;;;;;;;;;;;;;;5111493;28;20013;-51
2022/11/14 17:36:18;;;;;;;;;;;;;;;;;;5106969;28;19930;-53
2022/11/14 17:38:45;;;;;;;;;;;;;;;;;;5110982;28;20291;-53
2022/11/14 17:41:12;;;;;;;;;;;;;;;;;;5110016;28;20281;-55
2022/11/14 17:43:39;;;;;;;;;;;;;;;;;;5109368;28;20009;-53
2022/11/14 17:46:06;;;;;;;;;;;;;;;;;;5110918;28;19965;-53
2022/11/14 17:48:32;;;;;;;;;;;;;;;;;;5110205;28;19980;-50
2022/11/14 17:51:03;;;;;;;;;;;;;;;;;;5110686;28;19924;-55
2022/11/14 17:53:31;;;;;;;;;;;;;;;;;;5110745;28;20414;-53